Zumbro, Mississippi
Current Conditions -  °F | °C
As of 12:15 PM on Wednesday 28 Jan 2015 (Local Time) from KRNV Reporting Station
Clear Clear  
Wind Chill: 55°   Ceiling: Unl
Heat Index: 55°   Visibility: 10mi
Dew Point: 39°   Wind: 10mph
Humidity: 56%   Direction: 140°SE
Pressure: 30.25"   Gusts: NA
Location:  33.7476°N, 90.8364°W
Report Text: KRNV 281815Z AUTO 14009KT 10SM CLR 13/04 A3025 RMK AO2 T01250038
Loading
Personal Weather Stations






























Interactive Weather Map New forecast layout! Learn more

10-Day Weather Forecast

Advertisements
Track Severe Weather on mobile